Terminal Aerodrome Forecast
Issued by NWS Corpus Christi, TX

Home | Current Version | Previous Version | Text Only | Print | Product List | Glossary On
Versions: 1 2 3 4 5 6 7 8 9 10 11 12 13 14 15 16 17 18
000
FTUS44 KCRP 082327
TAFVCT
TAF
KVCT 082327Z 0900/0924 36015G22KT P6SM -DZ OVC040
     FM090700 36012KT P6SM OVC050
     FM091800 03008KT P6SM OVC050=

USA.gov is the U.S. government's official web portal to all federal, state and local government web resources and services.